Port St. Lucie, FL

8:07 PM EDT on September 18, 2014 (GMT -0400)
Sandpiper Bay | Change Station
CLOSE
Current Station
Personal Weather Station
Location: Port St Lucie, FL
Elevation: 22 ft
Nearby Weather Stations

Elev 22 ft 27.25 °N, 80.29 °W | Updated 2 seconds ago

Clear
Clear
80.8 °F
Feels Like 87 °F
N
0.0
Wind Variable Wind from North
Gusts 2.2 mph

Today
High -- | Low -- °F
--% Chance of Precip.
Yesterday
High -- | Low -- °F
Precip. -- in
7:07 AM 7:22 PM
Waning Crescent, 23% visible
Pressure 29.90 in
Visibility 10.0 miles
Clouds Clear
Heat Index 87 °F
Dew Point 75.2 °F
Humidity 83%
Rainfall 0.00 in
Snow Depth Not available.
UV 0 out of 12
Pollen 4.20 out of 12
Air Quality Not available.
Flu Activity Not available.
METAR KFPR 182353Z 00000KT 10SM CLR 27/22 A2990 RMK AO2 SLP123 T02670222 10311 20267 53004

More Conditions Fewer Conditions

Pressure 29.90 in
Visibility 10.0 miles
Clouds Clear
Heat Index 87 °F
Dew Point 75.2 °F
Humidity 83%
Rainfall 0.00 in
Snow Depth Not available.
UV 0 out of 12
Pollen 4.20 out of 12
Air Quality Not available.
Flu Activity Not available.
METAR KFPR 182353Z 00000KT 10SM CLR 27/22 A2990 RMK AO2 SLP123 T02670222 10311 20267 53004

More Conditions Fewer Conditions

Nowcast | as of 8:01 PM EDT on September 18, 2014

Boundary interactions may persist into late evening across interior sections...mainly in Lake County and far western Orange County. This will keep a slight chance for showers and storms going until 9 or 10 PM. Additional details...including graphics are available online at: http://www.Srh.NOAA.Gov/mlb/blog.Php

×

10-Day Weather Forecast

Almanac

Astronomy

Sep. 18, 2014 Rise Set
Actual Time 7:07 AM EDT 7:22 PM EDT
Civil Twilight 6:44 AM EDT 7:45 PM EDT
Nautical Twilight 6:17 AM EDT 8:12 PM EDT
Astronomical Twilight 5:49 AM EDT 8:40 PM EDT
Moon 2:19 AM EDT (9/18) 3:53 PM EDT (9/18)
Length of Visible Light 13h 00m
Length of Day
12h 14m
Tomorrow will be 1m 35s shorter.
Waning Crescent, 23% of the Moon is Illuminated
Today
Waning Crescent
Sep 24
New
Oct 1
First Quarter
Oct 8
Full
Oct 15
Last Quarter

Today's Extremes

State Highs State Lows

Community

WunderPhotos

Upload Photos

1,754,500 photos uploaded!

WunderBlogs® & News

Nearby

Snow Depth

Station Depth Elevation
No new snow has been reported.

Earthquake Activity

City Distance Mag. Time & Date
No recent earthquake activity has been reported nearby.
Minimum magnitude displayed is 2.5.

Coastal Water Temperatures

Place Temperature
Lake Worth, FL 84.9 °F
Trident Pier, FL 84.9 °F
Virginia Key, FL 86.0 °F

Nearby Weather Stations